KSFF/SFF METAR and TAF weather

Enter ICAO airport designator
Station Type Date Time Source
KSFF METAR 2022/01/26 13:58 UTC NOAA

KSFF 261358Z 00000KT 10SM BKN012 OVC019 00/M02 A3029 RMK AO2 T00001022


Station Type Date Time Source
KSFF Decoded METAR 2022/01/26 13:58 UTC NOAA

FELTS FIELD, WA, United States (KSFF) 47-41N 117-19W 609M
Jan 26, 2022 - 08:58 AM EST / 2022.01.26 1358 UTC
Wind: Calm:0
Visibility: 10 mile(s):0
Sky conditions: overcast
Temperature: 32.0 F (0.0 C)
Dew Point: 28.0 F (-2.2 C)
Relative Humidity: 85%
Pressure (altimeter): 30.29 in. Hg (1025 hPa)
ob: KSFF 261358Z 00000KT 10SM BKN012 OVC019 00/M02 A3029 RMK AO2 T00001022
cycle: 14

Station Type Date Time Source
KSFF TAF 2022/01/26 12:22 UTC NOAA

TAF KSFF 261120Z 2612/2712 06003KT P6SM OVC016
FM261600 VRB02KT P6SM OVC009
TEMPO 2616/2618 6SM BR OVC003
FM262100 23003KT P6SM OVC015
FM270900 VRB02KT 6SM BR OVC007

Example: see airport list